Time;durP1;ratioP1;P1;durP2;ratioP2;P2;SDS_P1;SDS_P2;PMS_P1;PMS_P2;Temp;Humidity;BMP_temperature;BMP_pressure;BME280_temperature;BME280_humidity;BME280_pressure;Samples;Min_cycle;Max_cycle;Signal;HPM_P1;HPM_P2
2022/07/28 00:01:31;;;;;;;1.27;1.17;;;23.50;71.50;;;;;;5061844;28;20414;-79
2022/07/28 00:03:59;;;;;;;1.48;1.30;;;23.60;71.60;;;;;;5068617;28;20479;-80
2022/07/28 00:06:26;;;;;;;1.50;1.05;;;23.60;71.70;;;;;;5043588;28;20416;-80
2022/07/28 00:08:54;;;;;;;1.77;1.10;;;23.60;71.60;;;;;;5048827;28;20788;-83
2022/07/28 00:11:21;;;;;;;1.42;1.33;;;23.60;71.50;;;;;;5062565;28;20408;-81
2022/07/28 00:13:48;;;;;;;1.38;1.00;;;23.60;71.20;;;;;;5053683;28;20831;-79
2022/07/28 00:16:14;;;;;;;2.20;1.30;;;23.60;71.70;;;;;;5048647;28;20387;-82
2022/07/28 00:18:42;;;;;;;1.90;1.17;;;23.60;71.80;;;;;;5044778;28;20418;-79
2022/07/28 00:21:10;;;;;;;2.40;1.13;;;23.60;72.10;;;;;;5059822;28;20409;-83
2022/07/28 00:23:37;;;;;;;1.30;1.20;;;23.50;72.40;;;;;;5051194;28;20436;-83
2022/07/28 00:26:07;;;;;;;2.35;1.20;;;23.40;72.50;;;;;;5050072;28;20400;-83
2022/07/28 00:28:35;;;;;;;2.60;1.50;;;23.40;72.50;;;;;;5051021;28;20410;-80
2022/07/28 00:31:03;;;;;;;1.20;1.10;;;23.40;72.50;;;;;;5052362;28;20465;-83
2022/07/28 00:33:38;;;;;;;2.27;1.23;;;23.40;72.40;;;;;;5061427;28;20477;-83
2022/07/28 00:36:09;;;;;;;2.80;1.45;;;23.30;72.30;;;;;;5063003;28;20404;-81
2022/07/28 00:38:39;;;;;;;2.88;1.55;;;23.30;72.40;;;;;;5056892;28;20906;-83
2022/07/28 00:41:09;;;;;;;1.60;1.20;;;23.30;72.80;;;;;;5096564;28;20417;-81
2022/07/28 00:43:45;;;;;;;2.13;1.30;;;23.20;73.00;;;;;;5059491;28;20404;-81
2022/07/28 00:46:13;;;;;;;2.05;1.17;;;23.10;73.30;;;;;;5057350;28;20857;-83
2022/07/28 00:48:45;;;;;;;2.40;1.40;;;23.10;73.30;;;;;;5065559;28;20421;-83
2022/07/28 00:51:15;;;;;;;1.70;1.15;;;23.00;73.40;;;;;;5053291;28;20409;-82
2022/07/28 00:53:43;;;;;;;2.40;1.20;;;23.00;73.60;;;;;;5053049;28;20420;-83
2022/07/28 00:56:11;;;;;;;1.40;1.30;;;23.00;73.30;;;;;;5057565;28;20456;-83
2022/07/28 00:58:38;;;;;;;2.22;1.85;;;23.00;72.90;;;;;;5052635;28;20424;-83
2022/07/28 01:01:10;;;;;;;1.85;1.30;;;23.10;73.20;;;;;;5061158;28;20400;-79
2022/07/28 01:03:40;;;;;;;1.35;1.25;;;23.10;72.90;;;;;;5060359;28;20397;-81
2022/07/28 01:06:19;;;;;;;2.25;1.60;;;23.10;72.50;;;;;;5098078;28;20412;-80
2022/07/28 01:08:56;;;;;;;1.42;1.30;;;23.20;72.50;;;;;;5057760;28;20405;-79
2022/07/28 01:11:37;;;;;;;1.48;1.38;;;23.20;72.50;;;;;;5057516;28;20416;-83
2022/07/28 01:14:29;;;;;;;1.13;1.02;;;23.30;72.60;;;;;;5060486;28;20444;-80
2022/07/28 01:17:28;;;;;;;1.70;1.60;;;23.30;72.40;;;;;;5062287;28;20444;-82
2022/07/28 01:20:07;;;;;;;1.48;1.13;;;23.30;71.70;;;;;;5054068;28;20413;-82
2022/07/28 01:22:49;;;;;;;2.20;1.30;;;23.30;71.20;;;;;;5062948;28;20973;-82
2022/07/28 01:25:40;;;;;;;1.30;1.10;;;23.30;70.70;;;;;;5046157;28;20741;-83
2022/07/28 01:28:31;;;;;;;1.73;1.15;;;23.30;70.60;;;;;;5070222;28;20400;-83
2022/07/28 01:31:04;;;;;;;1.50;1.40;;;23.40;70.50;;;;;;5056730;28;20435;-81
2022/07/28 01:33:37;;;;;;;1.20;1.10;;;23.40;70.20;;;;;;5060134;28;20407;-82
2022/07/28 01:36:17;;;;;;;1.85;1.75;;;23.40;69.80;;;;;;5048150;28;20444;-83
2022/07/28 01:38:46;;;;;;;1.50;1.40;;;23.40;69.40;;;;;;5058206;28;20429;-83
2022/07/28 01:41:20;;;;;;;2.10;1.80;;;23.40;69.10;;;;;;5061825;28;20547;-80
2022/07/28 01:44:01;;;;;;;1.50;1.20;;;23.50;69.20;;;;;;5059919;28;20430;-82
2022/07/28 01:46:29;;;;;;;1.52;1.42;;;23.50;69.20;;;;;;5058899;28;20396;-82
2022/07/28 01:48:57;;;;;;;2.22;1.60;;;23.50;69.60;;;;;;5056712;28;20691;-83
2022/07/28 01:51:30;;;;;;;1.83;1.70;;;23.50;69.30;;;;;;5047047;28;20404;-81
2022/07/28 01:53:58;;;;;;;1.90;1.45;;;23.60;69.30;;;;;;5056776;28;20773;-83
2022/07/28 01:56:29;;;;;;;1.73;1.50;;;23.60;69.20;;;;;;5063842;28;20408;-80
2022/07/28 01:58:59;;;;;;;1.90;1.70;;;23.60;68.80;;;;;;5061230;28;20408;-82
2022/07/28 02:01:27;;;;;;;2.53;1.88;;;23.60;68.50;;;;;;5064216;28;20399;-82
2022/07/28 02:03:57;;;;;;;2.05;1.60;;;23.60;68.50;;;;;;5088083;28;20409;-82
2022/07/28 02:06:25;;;;;;;2.13;1.37;;;23.60;68.80;;;;;;5040484;28;20468;-83
2022/07/28 02:08:54;;;;;;;1.60;1.02;;;23.50;69.00;;;;;;5073362;28;20416;-83
2022/07/28 02:11:40;;;;;;;1.33;1.05;;;23.50;69.10;;;;;;5039936;28;20405;-83
2022/07/28 02:14:12;;;;;;;1.80;1.40;;;23.50;69.40;;;;;;5043856;28;20400;-82
2022/07/28 02:17:03;;;;;;;1.95;1.40;;;23.50;69.60;;;;;;5044691;28;20408;-80
2022/07/28 02:19:31;;;;;;;1.92;1.48;;;23.50;70.00;;;;;;5049519;28;20946;-83
2022/07/28 02:22:02;;;;;;;2.27;2.07;;;23.40;70.70;;;;;;5045239;28;20962;-81
2022/07/28 02:24:30;;;;;;;5.47;2.05;;;23.30;71.30;;;;;;5046678;28;20380;-80
2022/07/28 02:27:24;;;;;;;1.83;1.73;;;23.20;71.70;;;;;;5046354;28;20433;-83
2022/07/28 02:30:17;;;;;;;1.95;1.67;;;23.10;71.90;;;;;;5052913;28;20478;-83
2022/07/28 02:32:51;;;;;;;2.10;1.75;;;23.10;71.80;;;;;;5047544;28;20451;-79
2022/07/28 02:35:27;;;;;;;2.30;1.80;;;23.10;71.90;;;;;;5046124;28;20404;-80
2022/07/28 02:38:06;;;;;;;2.40;1.92;;;23.10;71.80;;;;;;5038144;28;20406;-82
2022/07/28 02:40:35;;;;;;;2.27;1.73;;;23.10;71.80;;;;;;5048555;28;20501;-81
2022/07/28 02:43:09;;;;;;;2.97;2.08;;;23.20;71.70;;;;;;5023415;28;20398;-83
2022/07/28 02:45:40;;;;;;;1.60;1.25;;;23.20;71.60;;;;;;5041435;28;20414;-80
2022/07/28 02:48:12;;;;;;;1.90;1.30;;;23.20;71.30;;;;;;5023749;28;20414;-82
2022/07/28 02:50:41;;;;;;;1.38;1.25;;;23.30;71.20;;;;;;5027919;28;20822;-82
2022/07/28 02:53:09;;;;;;;1.20;1.10;;;23.30;70.90;;;;;;5016605;28;20417;-83
2022/07/28 02:55:45;;;;;;;2.60;1.60;;;23.40;70.70;;;;;;5073271;28;20415;-83
2022/07/28 02:58:14;;;;;;;1.77;1.00;;;23.40;71.00;;;;;;5046964;28;20424;-83
2022/07/28 03:00:42;;;;;;;2.20;1.80;;;23.40;71.40;;;;;;5066423;28;20440;-82
2022/07/28 03:03:10;;;;;;;2.17;2.00;;;23.40;71.40;;;;;;5038654;28;20522;-83
2022/07/28 03:05:40;;;;;;;2.22;2.03;;;23.40;71.00;;;;;;5063463;28;20412;-82
2022/07/28 03:08:07;;;;;;;2.47;2.03;;;23.50;70.20;;;;;;5071015;28;20408;-82
2022/07/28 03:10:34;;;;;;;2.08;1.88;;;23.60;69.60;;;;;;5064437;28;20405;-81
2022/07/28 03:13:08;;;;;;;1.67;1.57;;;23.60;69.00;;;;;;5058940;28;20402;-83
2022/07/28 03:15:38;;;;;;;3.05;1.85;;;23.70;68.70;;;;;;5065875;28;20412;-82
2022/07/28 03:18:06;;;;;;;1.77;1.50;;;23.70;68.70;;;;;;5065231;28;20405;-80
2022/07/28 03:20:33;;;;;;;2.15;1.63;;;23.70;68.50;;;;;;5068302;28;20416;-80
2022/07/28 03:23:01;;;;;;;1.80;1.65;;;23.80;68.40;;;;;;5075398;28;20460;-83
2022/07/28 03:25:44;;;;;;;2.05;1.65;;;23.80;68.30;;;;;;5074854;28;20408;-82
2022/07/28 03:28:18;;;;;;;3.08;1.73;;;23.80;68.20;;;;;;5094870;28;20375;-80
2022/07/28 03:30:53;;;;;;;1.60;1.50;;;23.90;68.40;;;;;;5078181;28;20455;-81
2022/07/28 03:33:20;;;;;;;2.28;1.58;;;23.80;69.40;;;;;;5078724;28;20783;-83
2022/07/28 03:35:50;;;;;;;2.13;1.60;;;23.80;68.70;;;;;;5074908;28;20399;-82
2022/07/28 03:38:24;;;;;;;2.28;1.80;;;23.80;69.20;;;;;;5078882;28;20429;-83
2022/07/28 03:40:55;;;;;;;1.42;1.33;;;23.80;69.80;;;;;;5073098;28;20415;-81
2022/07/28 03:43:24;;;;;;;1.90;1.80;;;23.80;69.60;;;;;;5072740;28;20476;-82
2022/07/28 03:45:51;;;;;;;2.25;1.75;;;23.80;69.20;;;;;;5080309;28;20441;-83
2022/07/28 03:48:22;;;;;;;1.90;1.77;;;23.80;68.80;;;;;;5076439;28;20854;-83
2022/07/28 03:50:49;;;;;;;2.05;1.85;;;23.80;68.40;;;;;;5071396;28;20403;-82
2022/07/28 03:53:20;;;;;;;1.60;1.50;;;23.80;68.30;;;;;;5072058;28;20913;-82
2022/07/28 03:55:49;;;;;;;1.50;1.40;;;23.80;68.50;;;;;;5072644;28;20410;-82
2022/07/28 03:58:19;;;;;;;1.50;1.40;;;23.80;68.50;;;;;;5076128;28;20422;-80
2022/07/28 04:00:47;;;;;;;1.65;1.55;;;23.90;68.70;;;;;;5068998;28;20418;-83
2022/07/28 04:03:15;;;;;;;2.42;2.10;;;23.90;69.00;;;;;;5080359;28;20437;-81
2022/07/28 04:06:01;;;;;;;2.33;1.60;;;23.90;70.00;;;;;;5070236;28;20487;-82
2022/07/28 04:08:28;;;;;;;2.10;1.90;;;23.80;71.40;;;;;;5077518;28;20399;-79
2022/07/28 04:10:55;;;;;;;4.95;2.53;;;23.80;71.70;;;;;;5074491;28;20475;-82
2022/07/28 04:13:22;;;;;;;3.22;2.05;;;23.60;72.40;;;;;;5068754;28;20960;-83
2022/07/28 04:15:49;;;;;;;2.20;2.00;;;23.50;73.10;;;;;;5065758;28;20814;-82
2022/07/28 04:18:17;;;;;;;3.67;2.70;;;23.40;73.20;;;;;;5085946;28;20818;-81
2022/07/28 04:20:44;;;;;;;2.60;2.33;;;23.30;73.20;;;;;;5075416;28;20418;-83
2022/07/28 04:23:11;;;;;;;3.73;3.27;;;23.30;73.10;;;;;;5077913;28;20468;-81
2022/07/28 04:25:38;;;;;;;2.70;2.50;;;23.20;72.90;;;;;;5080190;28;20436;-81
2022/07/28 04:28:05;;;;;;;3.17;2.88;;;23.20;72.70;;;;;;5075931;28;20414;-80
2022/07/28 04:30:32;;;;;;;3.00;2.50;;;23.20;72.80;;;;;;5078435;28;20453;-80
2022/07/28 04:32:59;;;;;;;3.20;2.90;;;23.20;72.90;;;;;;5078318;28;20685;-82
2022/07/28 04:35:27;;;;;;;3.88;3.15;;;23.20;73.20;;;;;;5075364;28;20399;-82
2022/07/28 04:37:57;;;;;;;3.72;3.42;;;23.10;73.70;;;;;;5070755;28;20456;-82
2022/07/28 04:40:25;;;;;;;4.40;3.27;;;23.10;72.70;;;;;;5071173;28;20797;-82
2022/07/28 04:42:53;;;;;;;4.15;3.65;;;23.10;71.30;;;;;;5073095;28;20460;-83
2022/07/28 04:45:20;;;;;;;3.90;3.28;;;23.30;67.10;;;;;;5069069;28;20817;-82
2022/07/28 04:47:47;;;;;;;2.60;2.33;;;23.60;65.00;;;;;;5079860;28;20386;-82
2022/07/28 04:50:16;;;;;;;3.38;2.33;;;23.80;65.60;;;;;;5078433;28;20407;-83
2022/07/28 04:52:47;;;;;;;2.87;2.33;;;23.90;64.30;;;;;;5079813;28;20420;-83
2022/07/28 04:55:14;;;;;;;3.27;3.00;;;24.00;63.50;;;;;;5075692;28;20468;-81
2022/07/28 04:57:42;;;;;;;3.60;2.90;;;24.20;62.00;;;;;;5079170;28;20475;-82
2022/07/28 05:00:13;;;;;;;3.13;2.83;;;24.40;61.60;;;;;;5073214;28;20550;-83
2022/07/28 05:02:41;;;;;;;3.92;2.92;;;24.50;60.60;;;;;;5080626;28;20474;-81
2022/07/28 05:05:09;;;;;;;4.20;2.80;;;24.60;60.30;;;;;;5069621;28;21178;-82
2022/07/28 05:07:37;;;;;;;3.17;2.90;;;24.70;60.40;;;;;;5069135;28;20415;-83
2022/07/28 05:10:06;;;;;;;3.35;2.70;;;24.80;59.20;;;;;;5107818;28;20411;-83
2022/07/28 05:12:33;;;;;;;3.63;2.70;;;25.00;58.10;;;;;;5063827;28;20466;-83
2022/07/28 05:15:04;;;;;;;3.25;2.88;;;25.10;57.80;;;;;;5078318;28;20411;-80
2022/07/28 05:17:31;;;;;;;2.37;2.27;;;25.10;58.10;;;;;;5077280;28;20421;-82
2022/07/28 05:19:58;;;;;;;4.00;2.53;;;25.10;57.80;;;;;;5080041;28;20809;-82
2022/07/28 05:22:25;;;;;;;3.80;2.90;;;25.10;57.90;;;;;;5079407;28;20415;-82
2022/07/28 05:24:52;;;;;;;3.33;3.03;;;25.10;57.80;;;;;;5085281;28;20411;-83
2022/07/28 05:27:19;;;;;;;3.80;2.47;;;25.20;58.20;;;;;;5066471;28;20446;-82
2022/07/28 05:29:46;;;;;;;3.23;2.93;;;25.20;57.90;;;;;;5075296;28;20744;-81
2022/07/28 05:32:14;;;;;;;2.83;2.42;;;25.20;58.50;;;;;;5083813;28;20414;-83
2022/07/28 05:34:44;;;;;;;4.30;3.03;;;25.20;58.90;;;;;;5078925;28;20482;-83
2022/07/28 05:37:11;;;;;;;3.43;2.70;;;25.20;58.40;;;;;;5078855;28;20432;-82
2022/07/28 05:39:38;;;;;;;2.70;2.50;;;25.20;58.50;;;;;;5072884;28;20552;-82
2022/07/28 05:42:05;;;;;;;2.63;2.42;;;25.20;58.60;;;;;;5110577;28;20422;-80
2022/07/28 05:44:32;;;;;;;3.47;3.13;;;25.20;58.50;;;;;;5081227;28;20433;-80
2022/07/28 05:47:04;;;;;;;3.23;3.00;;;25.20;58.70;;;;;;5075657;28;20766;-84
2022/07/28 05:49:31;;;;;;;3.10;2.80;;;25.20;58.70;;;;;;5076680;28;20390;-83
2022/07/28 05:51:58;;;;;;;2.95;2.70;;;25.20;58.90;;;;;;5084585;28;20430;-80
2022/07/28 05:54:25;;;;;;;3.20;2.53;;;25.20;58.70;;;;;;5080329;28;20402;-84
2022/07/28 05:56:52;;;;;;;3.55;2.72;;;25.20;58.50;;;;;;5084878;28;20424;-83
2022/07/28 05:59:19;;;;;;;4.13;2.88;;;25.20;58.30;;;;;;5076240;28;20403;-82
2022/07/28 06:01:46;;;;;;;3.15;2.80;;;25.30;57.80;;;;;;5078765;28;20398;-83
2022/07/28 06:04:13;;;;;;;3.13;2.80;;;25.30;57.60;;;;;;5084506;28;20423;-82
2022/07/28 06:06:56;;;;;;;3.80;3.05;;;25.40;57.50;;;;;;5078541;28;20410;-84
2022/07/28 06:09:23;;;;;;;3.40;2.67;;;25.50;58.10;;;;;;5075179;28;20456;-84
2022/07/28 06:11:50;;;;;;;2.90;2.60;;;25.50;57.50;;;;;;5078285;28;20414;-83
2022/07/28 06:14:17;;;;;;;2.50;2.30;;;25.60;56.20;;;;;;5084797;28;20387;-83
2022/07/28 06:16:49;;;;;;;3.00;2.70;;;25.70;56.10;;;;;;5075018;28;20774;-83
2022/07/28 06:19:18;;;;;;;3.97;3.05;;;25.70;56.00;;;;;;5066890;28;20410;-82
2022/07/28 06:21:46;;;;;;;3.25;2.83;;;25.80;55.40;;;;;;5080447;28;20881;-82
2022/07/28 06:24:13;;;;;;;4.43;2.78;;;25.90;55.80;;;;;;5105539;28;20428;-83
2022/07/28 06:26:41;;;;;;;2.43;2.23;;;25.90;55.50;;;;;;5079558;28;20461;-85
2022/07/28 06:29:11;;;;;;;3.70;2.67;;;25.90;55.60;;;;;;5085924;28;20474;-83
2022/07/28 06:31:38;;;;;;;4.25;2.53;;;26.00;56.00;;;;;;5079010;28;20478;-84
2022/07/28 06:34:05;;;;;;;2.83;2.63;;;26.10;55.50;;;;;;5077122;28;20402;-85
2022/07/28 06:36:32;;;;;;;2.70;2.50;;;26.20;55.00;;;;;;5069241;28;20436;-83
2022/07/28 06:38:59;;;;;;;2.95;2.65;;;26.20;54.60;;;;;;5072921;28;20411;-84
2022/07/28 06:41:26;;;;;;;2.90;2.60;;;26.30;54.40;;;;;;5067677;28;20911;-84
2022/07/28 06:43:53;;;;;;;2.90;2.70;;;26.30;54.30;;;;;;5090642;28;20445;-81
2022/07/28 06:46:21;;;;;;;4.57;2.77;;;26.30;54.10;;;;;;5070783;28;20431;-84
2022/07/28 06:48:48;;;;;;;3.17;2.97;;;26.30;53.60;;;;;;5075237;28;20920;-83
2022/07/28 06:51:17;;;;;;;2.85;2.63;;;26.40;54.40;;;;;;5072033;28;20419;-83
2022/07/28 06:53:47;;;;;;;3.47;3.17;;;26.50;54.30;;;;;;5059982;28;20929;-83
2022/07/28 06:56:14;;;;;;;3.10;2.77;;;26.60;52.20;;;;;;5055662;28;20421;-84
2022/07/28 06:58:42;;;;;;;3.55;2.95;;;26.60;52.50;;;;;;5062478;28;20409;-82
2022/07/28 07:01:16;;;;;;;3.25;2.95;;;26.60;52.00;;;;;;5053507;28;20477;-83
2022/07/28 07:03:43;;;;;;;2.78;2.33;;;26.60;52.20;;;;;;5061411;28;20419;-84
2022/07/28 07:06:10;;;;;;;3.30;3.00;;;26.60;52.30;;;;;;5058583;28;20513;-84
2022/07/28 07:08:37;;;;;;;3.47;2.60;;;26.70;52.30;;;;;;5058591;28;20466;-83
2022/07/28 07:11:04;;;;;;;4.88;3.25;;;26.70;52.20;;;;;;5047248;28;20783;-84
2022/07/28 07:13:31;;;;;;;3.08;2.80;;;26.80;51.30;;;;;;5050118;28;20480;-85
2022/07/28 07:15:59;;;;;;;2.78;2.58;;;26.90;51.20;;;;;;5057756;28;20466;-83
2022/07/28 07:18:26;;;;;;;3.40;2.53;;;26.90;51.90;;;;;;5058316;28;20412;-84
2022/07/28 07:20:55;;;;;;;3.30;2.90;;;27.00;52.20;;;;;;5058567;28;20416;-83
2022/07/28 07:23:22;;;;;;;3.30;3.00;;;27.00;50.90;;;;;;5048926;28;20412;-81
2022/07/28 07:25:49;;;;;;;3.23;3.00;;;27.10;50.60;;;;;;5055011;28;20506;-80
2022/07/28 07:28:16;;;;;;;3.30;3.00;;;27.10;50.20;;;;;;5051511;28;20467;-85
2022/07/28 07:30:42;;;;;;;3.08;2.88;;;27.10;50.50;;;;;;5047757;28;20780;-84
2022/07/28 07:33:09;;;;;;;3.33;3.03;;;27.20;51.00;;;;;;5060375;28;20388;-84
2022/07/28 07:35:37;;;;;;;3.38;2.70;;;27.30;50.50;;;;;;5053105;28;20422;-81
2022/07/28 07:38:04;;;;;;;3.50;3.20;;;27.30;50.20;;;;;;5068079;28;20407;-82
2022/07/28 07:40:31;;;;;;;4.00;3.08;;;27.30;50.10;;;;;;5048187;28;20487;-83
2022/07/28 07:42:58;;;;;;;4.05;3.13;;;27.30;50.10;;;;;;5057027;28;20404;-81
2022/07/28 07:45:25;;;;;;;3.45;2.95;;;27.30;49.70;;;;;;5064349;28;20483;-82
2022/07/28 07:47:52;;;;;;;5.82;3.58;;;27.40;49.90;;;;;;5072595;28;20406;-81
2022/07/28 07:50:19;;;;;;;3.17;2.85;;;27.40;48.90;;;;;;5069612;28;20427;-81
2022/07/28 07:52:48;;;;;;;4.50;2.95;;;27.40;49.00;;;;;;5065514;28;20430;-83
2022/07/28 07:55:16;;;;;;;4.57;4.07;;;27.50;48.90;;;;;;5051634;28;20416;-82
2022/07/28 07:57:43;;;;;;;2.90;2.60;;;27.40;48.90;;;;;;5051733;28;20451;-81
2022/07/28 08:00:11;;;;;;;4.40;3.30;;;27.40;48.60;;;;;;5053499;28;20416;-84
2022/07/28 08:02:56;;;;;;;3.10;2.90;;;27.40;49.20;;;;;;5050648;28;20981;-81
2022/07/28 08:05:23;;;;;;;3.38;3.08;;;27.30;48.80;;;;;;5049692;28;20417;-84
2022/07/28 08:08:03;;;;;;;3.43;3.13;;;27.40;48.90;;;;;;5052993;28;20765;-83
2022/07/28 08:10:30;;;;;;;3.05;2.78;;;27.40;48.70;;;;;;5073668;28;20414;-84
2022/07/28 08:12:57;;;;;;;3.87;3.47;;;27.50;49.10;;;;;;5050129;28;20840;-83
2022/07/28 08:15:24;;;;;;;3.03;2.58;;;27.60;48.20;;;;;;5051706;28;20420;-81
2022/07/28 08:17:51;;;;;;;3.15;2.85;;;27.70;47.90;;;;;;5052693;28;20416;-84
2022/07/28 08:20:18;;;;;;;3.58;3.28;;;27.80;47.70;;;;;;5052273;28;20972;-84
2022/07/28 08:22:53;;;;;;;3.88;2.80;;;27.90;47.70;;;;;;5045463;28;20407;-83
2022/07/28 08:25:21;;;;;;;3.70;3.40;;;28.00;47.30;;;;;;5047495;28;20409;-84
2022/07/28 08:27:49;;;;;;;3.65;3.05;;;28.10;47.20;;;;;;5052772;28;20408;-84
2022/07/28 08:30:19;;;;;;;3.00;2.60;;;28.20;46.60;;;;;;5052959;28;20542;-83
2022/07/28 08:32:50;;;;;;;4.25;3.13;;;28.30;46.40;;;;;;5046156;28;20423;-80
2022/07/28 08:35:24;;;;;;;3.67;3.35;;;28.50;46.70;;;;;;5052761;28;20411;-84
2022/07/28 08:38:05;;;;;;;3.25;2.95;;;28.80;46.70;;;;;;5047249;28;20417;-82
2022/07/28 08:40:34;;;;;;;3.42;3.10;;;29.20;45.60;;;;;;5048907;28;20416;-81
2022/07/28 08:43:22;;;;;;;2.75;2.53;;;29.30;45.00;;;;;;5048230;28;20435;-84
2022/07/28 08:45:51;;;;;;;3.35;2.88;;;29.60;45.20;;;;;;5043661;28;20447;-84
2022/07/28 08:48:26;;;;;;;2.87;2.67;;;30.00;43.40;;;;;;5032462;28;20430;-83
2022/07/28 08:50:54;;;;;;;2.80;2.60;;;30.10;43.40;;;;;;5049736;28;20478;-84
2022/07/28 08:53:21;;;;;;;4.15;2.67;;;30.30;43.20;;;;;;5051969;28;20416;-84
2022/07/28 08:55:49;;;;;;;2.95;2.75;;;30.30;42.40;;;;;;5049583;28;20466;-81
2022/07/28 08:58:16;;;;;;;3.60;2.78;;;30.30;42.10;;;;;;5048410;28;20486;-81
2022/07/28 09:00:44;;;;;;;3.07;2.87;;;30.20;42.30;;;;;;5047938;28;20474;-84
2022/07/28 09:03:12;;;;;;;3.03;2.83;;;30.20;42.00;;;;;;5049961;28;20815;-84
2022/07/28 09:05:41;;;;;;;4.78;3.15;;;30.10;42.50;;;;;;5058818;28;20458;-84
2022/07/28 09:08:11;;;;;;;3.17;2.87;;;30.10;42.20;;;;;;5049670;28;20400;-84
2022/07/28 09:10:38;;;;;;;3.95;2.85;;;30.00;42.00;;;;;;5046256;28;20432;-85
2022/07/28 09:13:05;;;;;;;3.03;2.67;;;30.00;43.30;;;;;;5044883;28;20396;-84
2022/07/28 09:15:33;;;;;;;2.90;2.70;;;30.10;43.00;;;;;;5047015;28;20768;-81
2022/07/28 09:18:01;;;;;;;3.40;3.10;;;30.30;42.50;;;;;;5054539;28;20473;-83
2022/07/28 09:20:28;;;;;;;3.00;2.75;;;30.50;42.40;;;;;;5056098;28;20425;-85
2022/07/28 09:23:01;;;;;;;2.60;2.40;;;30.60;41.50;;;;;;5055239;28;20524;-83
2022/07/28 09:25:29;;;;;;;2.90;2.60;;;30.50;41.30;;;;;;5053741;28;20401;-85
2022/07/28 09:28:06;;;;;;;3.10;2.80;;;30.60;41.30;;;;;;5034081;28;20431;-85
2022/07/28 09:30:35;;;;;;;3.72;3.35;;;30.80;41.50;;;;;;5046823;28;20433;-84
2022/07/28 09:33:12;;;;;;;3.60;2.90;;;31.10;40.10;;;;;;5041771;28;20424;-83
2022/07/28 09:35:59;;;;;;;3.40;2.80;;;31.30;40.50;;;;;;5039739;28;20495;-84
2022/07/28 09:38:39;;;;;;;3.55;3.10;;;31.40;40.40;;;;;;5046673;28;20466;-85
2022/07/28 09:41:06;;;;;;;4.30;2.90;;;31.50;39.90;;;;;;5056697;28;20808;-82
2022/07/28 09:43:40;;;;;;;2.90;2.60;;;31.60;39.50;;;;;;5043590;28;20483;-83
2022/07/28 09:46:18;;;;;;;4.50;2.80;;;31.80;39.70;;;;;;5060991;28;20403;-85
2022/07/28 09:48:48;;;;;;;3.38;2.70;;;31.90;39.10;;;;;;5061007;28;20433;-84
2022/07/28 09:51:20;;;;;;;3.65;2.83;;;31.80;39.50;;;;;;5055207;28;20402;-82
2022/07/28 09:53:47;;;;;;;6.38;3.00;;;31.80;39.20;;;;;;5053702;28;20480;-82
2022/07/28 09:56:14;;;;;;;3.22;2.92;;;31.80;39.10;;;;;;5058926;28;20464;-84
2022/07/28 09:58:51;;;;;;;3.53;3.00;;;31.90;39.80;;;;;;5058738;28;20412;-84
2022/07/28 10:01:19;;;;;;;3.15;2.70;;;31.90;38.70;;;;;;5051206;28;20413;-82
2022/07/28 10:03:52;;;;;;;3.20;2.90;;;31.80;38.90;;;;;;5053485;28;20412;-83
2022/07/28 10:06:33;;;;;;;3.25;3.00;;;31.90;39.00;;;;;;5033629;28;20426;-85
2022/07/28 10:09:04;;;;;;;4.28;2.95;;;31.90;38.30;;;;;;5030077;28;20416;-84
2022/07/28 10:11:31;;;;;;;3.60;3.30;;;31.80;39.90;;;;;;5024494;28;20418;-85
2022/07/28 10:14:06;;;;;;;3.80;3.40;;;31.60;38.90;;;;;;5030281;28;20425;-86
2022/07/28 10:16:40;;;;;;;2.80;2.60;;;31.60;39.40;;;;;;5033796;28;20478;-85
2022/07/28 10:19:08;;;;;;;3.78;2.88;;;31.60;40.30;;;;;;5022618;28;20416;-85
2022/07/28 10:21:44;;;;;;;3.25;2.95;;;31.70;39.80;;;;;;5047720;28;20418;-85
2022/07/28 10:24:21;;;;;;;2.97;2.67;;;31.80;40.00;;;;;;5033558;28;20409;-84
2022/07/28 10:26:49;;;;;;;3.13;2.75;;;31.80;39.80;;;;;;5032373;28;20448;-80
2022/07/28 10:29:19;;;;;;;3.00;2.75;;;31.90;38.60;;;;;;5033214;28;20464;-83
2022/07/28 10:31:56;;;;;;;3.08;2.78;;;31.90;38.40;;;;;;5027822;28;20463;-85
2022/07/28 10:34:44;;;;;;;3.13;2.53;;;32.10;38.70;;;;;;5018422;28;20406;-81
2022/07/28 10:37:20;;;;;;;3.00;2.80;;;32.40;39.70;;;;;;5006357;28;20466;-81
2022/07/28 10:40:09;;;;;;;2.58;2.38;;;32.60;38.10;;;;;;5011755;28;20425;-86
2022/07/28 10:42:39;;;;;;;2.67;2.47;;;32.80;37.60;;;;;;5033680;28;20427;-85
2022/07/28 10:45:10;;;;;;;2.92;2.60;;;33.10;36.50;;;;;;5019145;28;20402;-84
2022/07/28 10:47:37;;;;;;;3.40;2.30;;;33.30;36.10;;;;;;5050668;28;20417;-86
2022/07/28 10:50:04;;;;;;;3.05;2.70;;;33.50;36.50;;;;;;5010323;28;20804;-84
2022/07/28 10:52:33;;;;;;;2.67;2.47;;;33.60;36.30;;;;;;5012582;28;20431;-84
2022/07/28 10:55:36;;;;;;;3.80;2.73;;;33.50;36.50;;;;;;5030261;28;20909;-81
2022/07/28 10:58:18;;;;;;;3.10;2.78;;;33.40;35.60;;;;;;5023626;28;20495;-87
2022/07/28 11:00:52;;;;;;;3.65;3.33;;;33.20;36.10;;;;;;5050470;28;20413;-84
2022/07/28 11:03:41;;;;;;;3.88;3.00;;;32.70;36.90;;;;;;5031019;28;20412;-84
2022/07/28 11:06:30;;;;;;;2.88;2.67;;;32.40;37.90;;;;;;5046385;28;20408;-84
2022/07/28 11:09:18;;;;;;;3.80;3.20;;;32.40;38.60;;;;;;5056150;28;20403;-85
2022/07/28 11:11:54;;;;;;;4.50;2.95;;;32.50;39.00;;;;;;5045545;28;20486;-83
2022/07/28 11:14:28;;;;;;;3.05;2.80;;;32.60;37.10;;;;;;5038105;28;20823;-84
2022/07/28 11:17:04;;;;;;;3.17;2.97;;;32.60;37.30;;;;;;5037753;28;20409;-84
2022/07/28 11:19:45;;;;;;;3.38;2.78;;;32.50;37.10;;;;;;5052538;28;20496;-83
2022/07/28 11:22:33;;;;;;;3.78;3.10;;;32.60;38.60;;;;;;5046916;28;20477;-79
2022/07/28 11:25:00;;;;;;;3.28;2.92;;;32.70;38.90;;;;;;5039390;28;20416;-84
2022/07/28 11:27:52;;;;;;;3.97;2.75;;;32.90;38.40;;;;;;5038951;28;20420;-84
2022/07/28 11:30:31;;;;;;;3.20;2.92;;;33.10;37.90;;;;;;5035354;28;20409;-80
2022/07/28 11:32:59;;;;;;;3.20;2.95;;;33.00;37.10;;;;;;5039973;28;20402;-79
2022/07/28 11:35:28;;;;;;;3.35;3.00;;;33.10;37.40;;;;;;5060229;28;20412;-84
2022/07/28 11:38:00;;;;;;;3.28;3.08;;;33.00;37.40;;;;;;5037424;28;20462;-83
2022/07/28 11:40:33;;;;;;;2.90;2.70;;;32.90;37.70;;;;;;5039967;28;20535;-84
2022/07/28 11:43:30;;;;;;;3.22;2.80;;;33.00;38.00;;;;;;5075460;28;20408;-85
2022/07/28 11:46:04;;;;;;;2.90;2.60;;;33.10;36.50;;;;;;5078898;28;20461;-85
2022/07/28 11:48:37;;;;;;;3.42;2.63;;;33.20;38.20;;;;;;5054989;28;20415;-82
2022/07/28 11:51:04;;;;;;;3.03;2.80;;;33.30;37.90;;;;;;5057977;28;20440;-83
2022/07/28 11:53:37;;;;;;;3.22;2.92;;;33.40;37.40;;;;;;5058156;28;20409;-82
2022/07/28 11:56:12;;;;;;;5.32;2.95;;;33.50;37.00;;;;;;5054187;28;20477;-79
2022/07/28 11:58:41;;;;;;;4.30;2.88;;;33.60;36.50;;;;;;5042481;28;20418;-79
2022/07/28 12:01:18;;;;;;;3.38;2.63;;;33.70;36.90;;;;;;5034855;28;20405;-84
2022/07/28 12:03:48;;;;;;;3.88;3.05;;;33.70;36.70;;;;;;5034045;28;20819;-83
2022/07/28 12:06:24;;;;;;;3.20;3.00;;;33.80;36.10;;;;;;5036289;28;20888;-79
2022/07/28 12:09:01;;;;;;;3.33;3.03;;;33.80;35.50;;;;;;5035852;28;20431;-82
2022/07/28 12:11:39;;;;;;;4.90;3.03;;;33.80;36.20;;;;;;5036166;28;20419;-84
2022/07/28 12:14:09;;;;;;;3.17;2.57;;;33.90;36.30;;;;;;5050236;28;20409;-80
2022/07/28 12:16:42;;;;;;;3.55;2.40;;;33.90;36.20;;;;;;5034544;28;20411;-79
2022/07/28 12:19:10;;;;;;;2.70;2.50;;;34.00;35.50;;;;;;5027482;28;20828;-79
2022/07/28 12:21:58;;;;;;;2.72;2.38;;;33.90;35.50;;;;;;5035004;28;20425;-83
2022/07/28 12:24:30;;;;;;;10.90;3.63;;;33.70;35.90;;;;;;5034859;28;20401;-84
2022/07/28 12:27:12;;;;;;;6.40;3.00;;;33.60;35.90;;;;;;5078223;28;20406;-84
2022/07/28 12:29:40;;;;;;;3.03;2.75;;;33.30;36.70;;;;;;5034151;28;20503;-83
2022/07/28 12:32:11;;;;;;;2.78;2.53;;;33.10;36.50;;;;;;5081850;28;20418;-83
2022/07/28 12:34:39;;;;;;;2.75;2.55;;;33.20;36.60;;;;;;5054415;28;20395;-80
2022/07/28 12:37:08;;;;;;;2.92;2.20;;;33.20;36.60;;;;;;5036891;28;20446;-83
2022/07/28 12:39:38;;;;;;;2.83;2.60;;;33.40;37.30;;;;;;5037264;28;20880;-79
2022/07/28 12:42:10;;;;;;;4.47;2.78;;;33.40;35.80;;;;;;5037889;28;20424;-83
2022/07/28 12:44:39;;;;;;;3.17;2.55;;;33.20;36.60;;;;;;5037170;28;20407;-83
2022/07/28 12:47:10;;;;;;;3.53;2.10;;;33.00;36.60;;;;;;5050167;28;20414;-83
2022/07/28 12:49:39;;;;;;;2.30;2.10;;;32.80;37.40;;;;;;5035838;28;20807;-84
2022/07/28 12:52:22;;;;;;;2.85;2.40;;;32.80;37.50;;;;;;5035618;28;20420;-83
2022/07/28 12:54:51;;;;;;;2.53;2.27;;;33.00;36.80;;;;;;5069315;28;20408;-78
2022/07/28 12:57:41;;;;;;;2.53;2.20;;;33.30;36.60;;;;;;5031414;28;20431;-84
2022/07/28 13:00:21;;;;;;;2.38;2.22;;;33.50;36.10;;;;;;5054366;28;20472;-83
2022/07/28 13:02:50;;;;;;;3.10;2.60;;;33.70;35.50;;;;;;5033332;28;20415;-82
2022/07/28 13:08:25;;;;;;;4.05;2.25;;;34.30;35.00;;;;;;5051657;28;20416;-83
2022/07/28 13:10:55;;;;;;;2.70;2.50;;;34.50;34.50;;;;;;5056462;28;20443;-79
2022/07/28 13:13:25;;;;;;;4.35;2.28;;;34.70;34.10;;;;;;5053318;28;20400;-83